sensor_id;sensor_type;location;lat;lon;timestamp;temperature;humidity
32293;DHT22;43233;48.608;8.838;2022-11-21T00:00:17;3.80;86.20
32293;DHT22;43233;48.608;8.838;2022-11-21T00:02:42;3.70;86.20
32293;DHT22;43233;48.608;8.838;2022-11-21T00:05:08;3.70;86.70
32293;DHT22;43233;48.608;8.838;2022-11-21T00:07:34;3.70;86.50
32293;DHT22;43233;48.608;8.838;2022-11-21T00:09:59;3.70;85.80
32293;DHT22;43233;48.608;8.838;2022-11-21T00:12:25;3.80;85.80
32293;DHT22;43233;48.608;8.838;2022-11-21T00:14:50;3.80;84.50
32293;DHT22;43233;48.608;8.838;2022-11-21T00:17:16;3.70;83.50
32293;DHT22;43233;48.608;8.838;2022-11-21T00:19:42;3.80;83.80
32293;DHT22;43233;48.608;8.838;2022-11-21T00:22:07;3.80;82.80
32293;DHT22;43233;48.608;8.838;2022-11-21T00:24:33;3.70;82.80
32293;DHT22;43233;48.608;8.838;2022-11-21T00:26:59;3.70;82.50
32293;DHT22;43233;48.608;8.838;2022-11-21T00:29:24;3.60;82.70
32293;DHT22;43233;48.608;8.838;2022-11-21T00:31:50;3.60;82.50
32293;DHT22;43233;48.608;8.838;2022-11-21T00:34:15;3.60;82.10
32293;DHT22;43233;48.608;8.838;2022-11-21T00:36:41;3.60;82.00
32293;DHT22;43233;48.608;8.838;2022-11-21T00:39:07;3.50;82.10
32293;DHT22;43233;48.608;8.838;2022-11-21T00:41:32;3.50;81.00
32293;DHT22;43233;48.608;8.838;2022-11-21T00:43:58;3.40;82.00
32293;DHT22;43233;48.608;8.838;2022-11-21T00:46:24;3.30;82.20
32293;DHT22;43233;48.608;8.838;2022-11-21T00:48:49;3.20;82.30
32293;DHT22;43233;48.608;8.838;2022-11-21T00:51:15;3.30;82.70
32293;DHT22;43233;48.608;8.838;2022-11-21T00:53:41;3.20;83.80
32293;DHT22;43233;48.608;8.838;2022-11-21T00:56:06;3.20;83.20
32293;DHT22;43233;48.608;8.838;2022-11-21T00:58:32;3.20;84.00
32293;DHT22;43233;48.608;8.838;2022-11-21T01:01:04;3.20;83.20
32293;DHT22;43233;48.608;8.838;2022-11-21T01:03:32;3.20;83.20
32293;DHT22;43233;48.608;8.838;2022-11-21T01:06:07;3.10;84.20
32293;DHT22;43233;48.608;8.838;2022-11-21T01:08:34;3.10;86.70
32293;DHT22;43233;48.608;8.838;2022-11-21T01:11:10;3.10;88.30
32293;DHT22;43233;48.608;8.838;2022-11-21T01:13:36;3.10;89.50
32293;DHT22;43233;48.608;8.838;2022-11-21T01:16:07;3.20;90.80
32293;DHT22;43233;48.608;8.838;2022-11-21T01:18:33;3.20;90.30
32293;DHT22;43233;48.608;8.838;2022-11-21T01:21:01;3.30;90.50
32293;DHT22;43233;48.608;8.838;2022-11-21T01:23:27;3.30;90.50
32293;DHT22;43233;48.608;8.838;2022-11-21T01:25:53;3.40;90.40
32293;DHT22;43233;48.608;8.838;2022-11-21T01:28:19;3.40;90.60
32293;DHT22;43233;48.608;8.838;2022-11-21T01:30:44;3.40;90.80
32293;DHT22;43233;48.608;8.838;2022-11-21T01:33:10;3.50;89.80
32293;DHT22;43233;48.608;8.838;2022-11-21T01:35:35;3.40;88.40
32293;DHT22;43233;48.608;8.838;2022-11-21T01:38:01;3.40;88.70
32293;DHT22;43233;48.608;8.838;2022-11-21T01:40:26;3.40;89.20
32293;DHT22;43233;48.608;8.838;2022-11-21T01:43:08;3.40;89.10
32293;DHT22;43233;48.608;8.838;2022-11-21T01:48:58;3.40;90.40
32293;DHT22;43233;48.608;8.838;2022-11-21T01:51:58;3.40;90.50
32293;DHT22;43233;48.608;8.838;2022-11-21T01:54:48;3.40;90.30
32293;DHT22;43233;48.608;8.838;2022-11-21T01:57:26;3.40;90.20
32293;DHT22;43233;48.608;8.838;2022-11-21T02:00:09;3.40;89.80
32293;DHT22;43233;48.608;8.838;2022-11-21T02:02:38;3.40;89.60
32293;DHT22;43233;48.608;8.838;2022-11-21T02:05:06;3.30;89.30
32293;DHT22;43233;48.608;8.838;2022-11-21T02:07:36;3.30;89.60
32293;DHT22;43233;48.608;8.838;2022-11-21T02:10:04;3.20;90.10
32293;DHT22;43233;48.608;8.838;2022-11-21T02:12:38;3.20;90.60
32293;DHT22;43233;48.608;8.838;2022-11-21T02:15:05;3.20;90.00
32293;DHT22;43233;48.608;8.838;2022-11-21T02:17:32;3.20;90.50
32293;DHT22;43233;48.608;8.838;2022-11-21T02:20:00;3.10;90.50
32293;DHT22;43233;48.608;8.838;2022-11-21T02:25:25;3.10;90.20
32293;DHT22;43233;48.608;8.838;2022-11-21T02:27:56;3.10;90.60
32293;DHT22;43233;48.608;8.838;2022-11-21T02:30:23;3.10;90.50
32293;DHT22;43233;48.608;8.838;2022-11-21T02:32:48;3.10;90.80
32293;DHT22;43233;48.608;8.838;2022-11-21T02:35:16;3.10;90.20
32293;DHT22;43233;48.608;8.838;2022-11-21T02:37:46;3.10;90.30
32293;DHT22;43233;48.608;8.838;2022-11-21T02:40:15;3.20;90.00
32293;DHT22;43233;48.608;8.838;2022-11-21T02:45:30;3.20;90.20
32293;DHT22;43233;48.608;8.838;2022-11-21T02:47:57;3.30;89.40
32293;DHT22;43233;48.608;8.838;2022-11-21T02:50:28;3.30;89.10
32293;DHT22;43233;48.608;8.838;2022-11-21T02:52:54;3.30;89.30
32293;DHT22;43233;48.608;8.838;2022-11-21T02:55:20;3.40;88.90
32293;DHT22;43233;48.608;8.838;2022-11-21T02:57:46;3.40;89.60
32293;DHT22;43233;48.608;8.838;2022-11-21T03:00:12;3.40;88.70
32293;DHT22;43233;48.608;8.838;2022-11-21T03:02:38;3.50;88.40
32293;DHT22;43233;48.608;8.838;2022-11-21T03:05:05;3.40;88.00
32293;DHT22;43233;48.608;8.838;2022-11-21T03:07:31;3.50;88.40
32293;DHT22;43233;48.608;8.838;2022-11-21T03:09:57;3.60;88.90
32293;DHT22;43233;48.608;8.838;2022-11-21T03:12:22;3.60;87.90
32293;DHT22;43233;48.608;8.838;2022-11-21T03:14:48;3.60;87.70
32293;DHT22;43233;48.608;8.838;2022-11-21T03:17:14;3.70;87.90
32293;DHT22;43233;48.608;8.838;2022-11-21T03:19:40;3.70;87.80
32293;DHT22;43233;48.608;8.838;2022-11-21T03:22:05;3.80;87.90
32293;DHT22;43233;48.608;8.838;2022-11-21T03:24:31;3.80;87.40
32293;DHT22;43233;48.608;8.838;2022-11-21T03:26:57;3.90;87.30
32293;DHT22;43233;48.608;8.838;2022-11-21T03:29:22;3.90;86.50
32293;DHT22;43233;48.608;8.838;2022-11-21T03:31:48;4.00;86.70
32293;DHT22;43233;48.608;8.838;2022-11-21T03:34:13;4.00;86.20
32293;DHT22;43233;48.608;8.838;2022-11-21T03:36:39;3.90;86.00
32293;DHT22;43233;48.608;8.838;2022-11-21T03:39:05;4.00;86.10
32293;DHT22;43233;48.608;8.838;2022-11-21T03:41:30;4.00;86.40
32293;DHT22;43233;48.608;8.838;2022-11-21T03:44:06;3.90;86.40
32293;DHT22;43233;48.608;8.838;2022-11-21T03:46:34;4.00;86.50
32293;DHT22;43233;48.608;8.838;2022-11-21T03:49:01;4.10;86.70
32293;DHT22;43233;48.608;8.838;2022-11-21T03:51:27;4.10;86.40
32293;DHT22;43233;48.608;8.838;2022-11-21T03:53:53;4.00;86.40
32293;DHT22;43233;48.608;8.838;2022-11-21T03:56:18;4.00;86.50
32293;DHT22;43233;48.608;8.838;2022-11-21T03:58:44;3.90;87.70
32293;DHT22;43233;48.608;8.838;2022-11-21T04:01:10;3.90;87.10
32293;DHT22;43233;48.608;8.838;2022-11-21T04:03:38;3.90;87.30
32293;DHT22;43233;48.608;8.838;2022-11-21T04:06:03;3.90;87.50
32293;DHT22;43233;48.608;8.838;2022-11-21T04:08:29;3.90;87.60
32293;DHT22;43233;48.608;8.838;2022-11-21T04:10:55;3.90;88.00
32293;DHT22;43233;48.608;8.838;2022-11-21T04:13:20;3.80;88.20
32293;DHT22;43233;48.608;8.838;2022-11-21T04:15:46;3.90;88.50
32293;DHT22;43233;48.608;8.838;2022-11-21T04:18:12;3.90;88.40
32293;DHT22;43233;48.608;8.838;2022-11-21T04:20:38;3.90;88.30
32293;DHT22;43233;48.608;8.838;2022-11-21T04:23:04;3.90;88.60
32293;DHT22;43233;48.608;8.838;2022-11-21T04:25:30;3.90;88.70
32293;DHT22;43233;48.608;8.838;2022-11-21T04:28:00;3.90;89.10
32293;DHT22;43233;48.608;8.838;2022-11-21T04:30:27;3.90;89.20
32293;DHT22;43233;48.608;8.838;2022-11-21T04:32:54;3.80;89.70
32293;DHT22;43233;48.608;8.838;2022-11-21T04:35:20;3.80;89.80
32293;DHT22;43233;48.608;8.838;2022-11-21T04:37:46;3.80;89.70
32293;DHT22;43233;48.608;8.838;2022-11-21T04:40:12;3.90;89.70
32293;DHT22;43233;48.608;8.838;2022-11-21T04:42:45;3.90;89.00
32293;DHT22;43233;48.608;8.838;2022-11-21T04:45:12;3.80;88.80
32293;DHT22;43233;48.608;8.838;2022-11-21T04:47:39;3.80;88.70
32293;DHT22;43233;48.608;8.838;2022-11-21T04:50:06;3.70;88.70
32293;DHT22;43233;48.608;8.838;2022-11-21T04:52:33;3.70;89.10
32293;DHT22;43233;48.608;8.838;2022-11-21T04:55:00;3.60;89.20
32293;DHT22;43233;48.608;8.838;2022-11-21T04:57:29;3.60;89.40
32293;DHT22;43233;48.608;8.838;2022-11-21T04:59:55;3.50;89.80
32293;DHT22;43233;48.608;8.838;2022-11-21T05:02:21;3.50;90.40
32293;DHT22;43233;48.608;8.838;2022-11-21T05:04:47;3.50;90.60
32293;DHT22;43233;48.608;8.838;2022-11-21T05:07:13;3.60;90.60
32293;DHT22;43233;48.608;8.838;2022-11-21T05:09:39;3.60;90.20
32293;DHT22;43233;48.608;8.838;2022-11-21T05:12:04;3.60;89.30
32293;DHT22;43233;48.608;8.838;2022-11-21T05:14:48;3.60;89.20
32293;DHT22;43233;48.608;8.838;2022-11-21T05:17:14;3.60;89.10
32293;DHT22;43233;48.608;8.838;2022-11-21T05:19:40;3.50;89.50
32293;DHT22;43233;48.608;8.838;2022-11-21T05:22:05;3.60;88.90
32293;DHT22;43233;48.608;8.838;2022-11-21T05:24:31;3.60;89.00
32293;DHT22;43233;48.608;8.838;2022-11-21T05:26:56;3.50;89.80
32293;DHT22;43233;48.608;8.838;2022-11-21T05:29:22;3.60;89.30
32293;DHT22;43233;48.608;8.838;2022-11-21T05:31:47;3.70;89.20
32293;DHT22;43233;48.608;8.838;2022-11-21T05:34:13;3.70;88.70
32293;DHT22;43233;48.608;8.838;2022-11-21T05:36:39;3.70;88.40
32293;DHT22;43233;48.608;8.838;2022-11-21T05:39:04;3.80;88.20
32293;DHT22;43233;48.608;8.838;2022-11-21T05:41:30;3.70;87.40
32293;DHT22;43233;48.608;8.838;2022-11-21T05:43:56;3.80;87.60
32293;DHT22;43233;48.608;8.838;2022-11-21T05:46:24;3.80;87.10
32293;DHT22;43233;48.608;8.838;2022-11-21T05:48:51;3.80;87.30
32293;DHT22;43233;48.608;8.838;2022-11-21T05:51:17;3.70;86.50
32293;DHT22;43233;48.608;8.838;2022-11-21T05:53:43;3.70;86.50
32293;DHT22;43233;48.608;8.838;2022-11-21T05:56:12;3.70;86.70
32293;DHT22;43233;48.608;8.838;2022-11-21T05:58:38;3.70;86.30
32293;DHT22;43233;48.608;8.838;2022-11-21T06:01:05;3.70;86.20
32293;DHT22;43233;48.608;8.838;2022-11-21T06:03:39;3.70;86.30
32293;DHT22;43233;48.608;8.838;2022-11-21T06:06:13;3.70;86.30
32293;DHT22;43233;48.608;8.838;2022-11-21T06:08:44;3.70;86.40
32293;DHT22;43233;48.608;8.838;2022-11-21T06:11:12;3.70;86.00
32293;DHT22;43233;48.608;8.838;2022-11-21T06:13:39;3.60;85.50
32293;DHT22;43233;48.608;8.838;2022-11-21T06:16:08;3.60;85.70
32293;DHT22;43233;48.608;8.838;2022-11-21T06:18:36;3.50;86.40
32293;DHT22;43233;48.608;8.838;2022-11-21T06:21:19;3.50;87.00
32293;DHT22;43233;48.608;8.838;2022-11-21T06:23:46;3.50;87.80
32293;DHT22;43233;48.608;8.838;2022-11-21T06:26:14;3.40;88.20
32293;DHT22;43233;48.608;8.838;2022-11-21T06:28:41;3.40;88.60
32293;DHT22;43233;48.608;8.838;2022-11-21T06:31:12;3.40;88.70
32293;DHT22;43233;48.608;8.838;2022-11-21T06:33:38;3.40;89.00
32293;DHT22;43233;48.608;8.838;2022-11-21T06:36:06;3.40;89.00
32293;DHT22;43233;48.608;8.838;2022-11-21T06:38:32;3.40;89.30
32293;DHT22;43233;48.608;8.838;2022-11-21T06:41:12;3.40;89.70
32293;DHT22;43233;48.608;8.838;2022-11-21T06:43:38;3.40;89.60
32293;DHT22;43233;48.608;8.838;2022-11-21T06:46:04;3.40;90.20
32293;DHT22;43233;48.608;8.838;2022-11-21T06:48:31;3.30;90.10
32293;DHT22;43233;48.608;8.838;2022-11-21T06:50:56;3.30;90.10
32293;DHT22;43233;48.608;8.838;2022-11-21T06:53:22;3.30;90.20
32293;DHT22;43233;48.608;8.838;2022-11-21T06:55:48;3.30;90.20
32293;DHT22;43233;48.608;8.838;2022-11-21T06:58:14;3.30;90.20
32293;DHT22;43233;48.608;8.838;2022-11-21T07:00:39;3.20;90.20
32293;DHT22;43233;48.608;8.838;2022-11-21T07:03:05;3.20;90.20
32293;DHT22;43233;48.608;8.838;2022-11-21T07:05:30;3.30;90.20
32293;DHT22;43233;48.608;8.838;2022-11-21T07:07:58;3.30;90.00
32293;DHT22;43233;48.608;8.838;2022-11-21T07:10:24;3.30;89.90
32293;DHT22;43233;48.608;8.838;2022-11-21T07:12:50;3.50;89.80
32293;DHT22;43233;48.608;8.838;2022-11-21T07:15:34;3.50;89.50
32293;DHT22;43233;48.608;8.838;2022-11-21T07:18:00;3.60;89.00
32293;DHT22;43233;48.608;8.838;2022-11-21T07:20:26;3.60;88.30
32293;DHT22;43233;48.608;8.838;2022-11-21T07:22:54;3.70;88.10
32293;DHT22;43233;48.608;8.838;2022-11-21T07:25:21;3.70;88.10
32293;DHT22;43233;48.608;8.838;2022-11-21T07:27:46;3.70;87.70
32293;DHT22;43233;48.608;8.838;2022-11-21T07:30:13;3.80;87.60
32293;DHT22;43233;48.608;8.838;2022-11-21T07:32:38;3.90;88.00
32293;DHT22;43233;48.608;8.838;2022-11-21T07:35:04;4.00;88.20
32293;DHT22;43233;48.608;8.838;2022-11-21T07:37:30;4.10;88.10
32293;DHT22;43233;48.608;8.838;2022-11-21T07:39:56;4.20;88.30
32293;DHT22;43233;48.608;8.838;2022-11-21T07:42:22;4.30;87.80
32293;DHT22;43233;48.608;8.838;2022-11-21T07:44:47;4.30;87.10
32293;DHT22;43233;48.608;8.838;2022-11-21T07:47:13;4.20;85.70
32293;DHT22;43233;48.608;8.838;2022-11-21T07:49:38;4.20;85.00
32293;DHT22;43233;48.608;8.838;2022-11-21T07:52:04;4.20;85.30
32293;DHT22;43233;48.608;8.838;2022-11-21T07:54:29;4.10;85.10
32293;DHT22;43233;48.608;8.838;2022-11-21T07:56:55;4.10;85.00
32293;DHT22;43233;48.608;8.838;2022-11-21T07:59:20;4.00;84.50
32293;DHT22;43233;48.608;8.838;2022-11-21T08:01:46;4.00;85.10
32293;DHT22;43233;48.608;8.838;2022-11-21T08:04:12;3.90;85.60
32293;DHT22;43233;48.608;8.838;2022-11-21T08:06:37;3.90;85.80
32293;DHT22;43233;48.608;8.838;2022-11-21T08:09:03;4.00;86.40
32293;DHT22;43233;48.608;8.838;2022-11-21T08:11:28;4.00;87.40
32293;DHT22;43233;48.608;8.838;2022-11-21T08:13:57;4.10;86.80
32293;DHT22;43233;48.608;8.838;2022-11-21T08:16:23;4.10;85.80
32293;DHT22;43233;48.608;8.838;2022-11-21T08:18:52;4.10;83.60
32293;DHT22;43233;48.608;8.838;2022-11-21T08:21:18;4.20;83.20
32293;DHT22;43233;48.608;8.838;2022-11-21T08:23:43;4.20;82.90
32293;DHT22;43233;48.608;8.838;2022-11-21T08:26:09;4.30;83.10
32293;DHT22;43233;48.608;8.838;2022-11-21T08:28:35;4.30;83.30
32293;DHT22;43233;48.608;8.838;2022-11-21T08:31:04;4.40;83.80
32293;DHT22;43233;48.608;8.838;2022-11-21T08:33:31;4.50;83.20
32293;DHT22;43233;48.608;8.838;2022-11-21T08:35:57;4.60;83.60
32293;DHT22;43233;48.608;8.838;2022-11-21T08:38:24;4.70;84.20
32293;DHT22;43233;48.608;8.838;2022-11-21T08:40:49;4.80;84.30
32293;DHT22;43233;48.608;8.838;2022-11-21T08:43:35;4.80;84.20
32293;DHT22;43233;48.608;8.838;2022-11-21T08:46:00;4.90;84.10
32293;DHT22;43233;48.608;8.838;2022-11-21T08:48:26;5.00;82.60
32293;DHT22;43233;48.608;8.838;2022-11-21T08:50:51;5.10;81.40
32293;DHT22;43233;48.608;8.838;2022-11-21T08:53:17;5.10;82.10
32293;DHT22;43233;48.608;8.838;2022-11-21T08:55:42;5.20;80.80
32293;DHT22;43233;48.608;8.838;2022-11-21T08:58:08;5.30;81.00
32293;DHT22;43233;48.608;8.838;2022-11-21T09:00:33;5.30;81.80
32293;DHT22;43233;48.608;8.838;2022-11-21T09:03:03;5.40;79.20
32293;DHT22;43233;48.608;8.838;2022-11-21T09:05:29;5.50;80.80
32293;DHT22;43233;48.608;8.838;2022-11-21T09:07:56;5.50;81.20
32293;DHT22;43233;48.608;8.838;2022-11-21T09:10:22;5.60;79.50
32293;DHT22;43233;48.608;8.838;2022-11-21T09:12:47;5.60;80.80
32293;DHT22;43233;48.608;8.838;2022-11-21T09:15:13;5.50;78.80
32293;DHT22;43233;48.608;8.838;2022-11-21T09:18:01;5.20;78.80
32293;DHT22;43233;48.608;8.838;2022-11-21T09:20:37;5.00;79.60
32293;DHT22;43233;48.608;8.838;2022-11-21T09:23:08;5.00;81.70
32293;DHT22;43233;48.608;8.838;2022-11-21T09:25:34;5.00;82.10
32293;DHT22;43233;48.608;8.838;2022-11-21T09:28:04;5.00;83.40
32293;DHT22;43233;48.608;8.838;2022-11-21T09:30:30;5.10;84.60
32293;DHT22;43233;48.608;8.838;2022-11-21T09:33:00;5.20;84.60
32293;DHT22;43233;48.608;8.838;2022-11-21T09:35:26;5.30;85.50
32293;DHT22;43233;48.608;8.838;2022-11-21T09:37:52;5.40;83.80
32293;DHT22;43233;48.608;8.838;2022-11-21T09:40:18;5.50;85.70
32293;DHT22;43233;48.608;8.838;2022-11-21T09:45:33;5.80;84.60
32293;DHT22;43233;48.608;8.838;2022-11-21T09:48:04;5.90;83.00
32293;DHT22;43233;48.608;8.838;2022-11-21T09:50:43;6.00;83.90
32293;DHT22;43233;48.608;8.838;2022-11-21T09:53:31;6.10;81.70
32293;DHT22;43233;48.608;8.838;2022-11-21T09:56:00;6.20;81.40
32293;DHT22;43233;48.608;8.838;2022-11-21T09:58:30;6.30;79.40
32293;DHT22;43233;48.608;8.838;2022-11-21T10:00:56;6.30;79.40
32293;DHT22;43233;48.608;8.838;2022-11-21T10:03:25;6.50;80.00
32293;DHT22;43233;48.608;8.838;2022-11-21T10:06:01;6.60;79.50
32293;DHT22;43233;48.608;8.838;2022-11-21T10:18:49;6.80;75.00
32293;DHT22;43233;48.608;8.838;2022-11-21T10:24:02;6.90;75.10
32293;DHT22;43233;48.608;8.838;2022-11-21T10:34:42;7.10;74.10
32293;DHT22;43233;48.608;8.838;2022-11-21T10:37:34;7.20;72.20
32293;DHT22;43233;48.608;8.838;2022-11-21T10:43:01;7.50;71.40
32293;DHT22;43233;48.608;8.838;2022-11-21T10:45:50;7.50;68.90
32293;DHT22;43233;48.608;8.838;2022-11-21T10:48:17;7.60;70.00
32293;DHT22;43233;48.608;8.838;2022-11-21T10:51:10;7.70;67.80
32293;DHT22;43233;48.608;8.838;2022-11-21T10:53:39;7.70;67.00
32293;DHT22;43233;48.608;8.838;2022-11-21T10:56:25;7.80;68.50
32293;DHT22;43233;48.608;8.838;2022-11-21T10:58:53;7.80;65.70
32293;DHT22;43233;48.608;8.838;2022-11-21T11:01:27;7.80;68.80
32293;DHT22;43233;48.608;8.838;2022-11-21T11:06:37;7.90;64.80
32293;DHT22;43233;48.608;8.838;2022-11-21T11:09:03;8.00;66.50
32293;DHT22;43233;48.608;8.838;2022-11-21T11:11:29;8.00;66.90
32293;DHT22;43233;48.608;8.838;2022-11-21T11:14:06;7.70;68.40
32293;DHT22;43233;48.608;8.838;2022-11-21T11:16:42;7.70;66.70
32293;DHT22;43233;48.608;8.838;2022-11-21T11:26:34;8.10;64.30
32293;DHT22;43233;48.608;8.838;2022-11-21T11:29:28;8.20;63.80
32293;DHT22;43233;48.608;8.838;2022-11-21T11:34:26;8.80;61.10
32293;DHT22;43233;48.608;8.838;2022-11-21T11:37:00;9.30;61.30
32293;DHT22;43233;48.608;8.838;2022-11-21T11:39:38;9.60;61.00
32293;DHT22;43233;48.608;8.838;2022-11-21T11:47:59;9.90;54.80
32293;DHT22;43233;48.608;8.838;2022-11-21T11:50:39;9.60;53.00
32293;DHT22;43233;48.608;8.838;2022-11-21T11:55:44;9.60;52.40
32293;DHT22;43233;48.608;8.838;2022-11-21T12:01:01;10.30;51.90
32293;DHT22;43233;48.608;8.838;2022-11-21T12:06:34;11.00;48.30
32293;DHT22;43233;48.608;8.838;2022-11-21T12:12:09;11.80;48.00
32293;DHT22;43233;48.608;8.838;2022-11-21T12:15:00;12.30;48.10
32293;DHT22;43233;48.608;8.838;2022-11-21T12:23:19;13.60;44.10
32293;DHT22;43233;48.608;8.838;2022-11-21T12:57:14;12.40;44.80
32293;DHT22;43233;48.608;8.838;2022-11-21T13:05:35;12.90;41.40
32293;DHT22;43233;48.608;8.838;2022-11-21T13:08:07;12.80;42.40
32293;DHT22;43233;48.608;8.838;2022-11-21T13:10:35;12.70;43.20
32293;DHT22;43233;48.608;8.838;2022-11-21T13:13:29;12.50;43.80
32293;DHT22;43233;48.608;8.838;2022-11-21T13:16:01;12.20;44.40
32293;DHT22;43233;48.608;8.838;2022-11-21T13:18:34;12.00;46.10
32293;DHT22;43233;48.608;8.838;2022-11-21T13:21:01;11.80;46.20
32293;DHT22;43233;48.608;8.838;2022-11-21T13:23:38;11.70;46.90
32293;DHT22;43233;48.608;8.838;2022-11-21T13:28:49;11.20;49.00
32293;DHT22;43233;48.608;8.838;2022-11-21T13:31:33;11.10;49.10
32293;DHT22;43233;48.608;8.838;2022-11-21T13:34:04;10.90;49.50
32293;DHT22;43233;48.608;8.838;2022-11-21T13:47:03;9.90;51.90
32293;DHT22;43233;48.608;8.838;2022-11-21T14:06:31;9.70;53.50
32293;DHT22;43233;48.608;8.838;2022-11-21T14:09:16;9.70;55.20
32293;DHT22;43233;48.608;8.838;2022-11-21T14:11:56;9.60;54.20
32293;DHT22;43233;48.608;8.838;2022-11-21T14:19:54;9.60;54.80
32293;DHT22;43233;48.608;8.838;2022-11-21T14:22:30;9.50;54.50
32293;DHT22;43233;48.608;8.838;2022-11-21T14:24:58;9.60;54.50
32293;DHT22;43233;48.608;8.838;2022-11-21T14:27:29;9.50;55.00
32293;DHT22;43233;48.608;8.838;2022-11-21T14:29:57;9.40;55.20
32293;DHT22;43233;48.608;8.838;2022-11-21T14:32:28;9.40;55.80
32293;DHT22;43233;48.608;8.838;2022-11-21T14:35:20;9.40;56.20
32293;DHT22;43233;48.608;8.838;2022-11-21T14:37:46;9.40;56.50
32293;DHT22;43233;48.608;8.838;2022-11-21T14:40:13;9.30;56.80
32293;DHT22;43233;48.608;8.838;2022-11-21T14:42:44;9.30;57.10
32293;DHT22;43233;48.608;8.838;2022-11-21T14:45:22;9.30;57.10
32293;DHT22;43233;48.608;8.838;2022-11-21T14:47:50;9.30;57.50
32293;DHT22;43233;48.608;8.838;2022-11-21T14:50:25;9.20;57.60
32293;DHT22;43233;48.608;8.838;2022-11-21T14:52:51;9.20;57.80
32293;DHT22;43233;48.608;8.838;2022-11-21T14:55:24;9.10;57.80
32293;DHT22;43233;48.608;8.838;2022-11-21T14:57:50;9.10;58.10
32293;DHT22;43233;48.608;8.838;2022-11-21T15:00:20;9.10;58.20
32293;DHT22;43233;48.608;8.838;2022-11-21T15:02:52;9.00;58.20
32293;DHT22;43233;48.608;8.838;2022-11-21T15:05:18;9.10;58.60
32293;DHT22;43233;48.608;8.838;2022-11-21T15:07:46;9.00;58.70
32293;DHT22;43233;48.608;8.838;2022-11-21T15:10:16;8.90;59.00
32293;DHT22;43233;48.608;8.838;2022-11-21T15:17:47;8.80;59.50
32293;DHT22;43233;48.608;8.838;2022-11-21T15:20:18;8.70;59.80
32293;DHT22;43233;48.608;8.838;2022-11-21T15:22:45;8.60;60.50
32293;DHT22;43233;48.608;8.838;2022-11-21T15:25:20;8.60;60.70
32293;DHT22;43233;48.608;8.838;2022-11-21T15:27:48;8.50;60.00
32293;DHT22;43233;48.608;8.838;2022-11-21T15:37:59;8.00;61.30
32293;DHT22;43233;48.608;8.838;2022-11-21T15:40:25;8.00;61.40
32293;DHT22;43233;48.608;8.838;2022-11-21T15:42:51;7.90;61.50
32293;DHT22;43233;48.608;8.838;2022-11-21T15:45:26;7.90;61.70
32293;DHT22;43233;48.608;8.838;2022-11-21T15:47:51;7.90;61.70
32293;DHT22;43233;48.608;8.838;2022-11-21T15:50:17;7.80;61.60
32293;DHT22;43233;48.608;8.838;2022-11-21T15:52:48;7.70;61.70
32293;DHT22;43233;48.608;8.838;2022-11-21T15:55:26;7.60;61.70
32293;DHT22;43233;48.608;8.838;2022-11-21T15:57:53;7.50;61.80
32293;DHT22;43233;48.608;8.838;2022-11-21T16:00:19;7.40;62.70
32293;DHT22;43233;48.608;8.838;2022-11-21T16:02:45;7.30;62.20
32293;DHT22;43233;48.608;8.838;2022-11-21T16:05:12;7.00;63.30
32293;DHT22;43233;48.608;8.838;2022-11-21T16:07:38;6.90;64.10
32293;DHT22;43233;48.608;8.838;2022-11-21T16:10:05;6.80;63.50
32293;DHT22;43233;48.608;8.838;2022-11-21T16:12:31;6.70;64.20
32293;DHT22;43233;48.608;8.838;2022-11-21T16:14:56;6.60;64.60
32293;DHT22;43233;48.608;8.838;2022-11-21T16:17:22;6.60;65.00
32293;DHT22;43233;48.608;8.838;2022-11-21T16:19:47;6.40;65.20
32293;DHT22;43233;48.608;8.838;2022-11-21T16:22:13;6.30;65.40
32293;DHT22;43233;48.608;8.838;2022-11-21T16:24:41;6.30;65.50
32293;DHT22;43233;48.608;8.838;2022-11-21T16:27:06;6.30;65.20
32293;DHT22;43233;48.608;8.838;2022-11-21T16:29:32;6.40;64.80
32293;DHT22;43233;48.608;8.838;2022-11-21T16:31:57;6.20;65.40
32293;DHT22;43233;48.608;8.838;2022-11-21T16:34:24;6.10;67.00
32293;DHT22;43233;48.608;8.838;2022-11-21T16:36:50;5.90;67.00
32293;DHT22;43233;48.608;8.838;2022-11-21T16:39:15;5.80;67.60
32293;DHT22;43233;48.608;8.838;2022-11-21T16:41:41;5.70;67.80
32293;DHT22;43233;48.608;8.838;2022-11-21T16:44:12;5.80;67.50
32293;DHT22;43233;48.608;8.838;2022-11-21T16:46:43;5.80;67.20
32293;DHT22;43233;48.608;8.838;2022-11-21T16:49:10;5.80;67.30
32293;DHT22;43233;48.608;8.838;2022-11-21T16:51:35;5.80;67.50
32293;DHT22;43233;48.608;8.838;2022-11-21T16:54:01;5.80;67.50
32293;DHT22;43233;48.608;8.838;2022-11-21T16:56:27;5.70;67.50
32293;DHT22;43233;48.608;8.838;2022-11-21T16:58:52;5.70;67.80
32293;DHT22;43233;48.608;8.838;2022-11-21T17:01:23;5.70;68.00
32293;DHT22;43233;48.608;8.838;2022-11-21T17:03:49;5.70;68.10
32293;DHT22;43233;48.608;8.838;2022-11-21T17:06:18;5.60;68.20
32293;DHT22;43233;48.608;8.838;2022-11-21T17:08:44;5.60;67.90
32293;DHT22;43233;48.608;8.838;2022-11-21T17:13:39;5.60;68.00
32293;DHT22;43233;48.608;8.838;2022-11-21T17:16:06;5.50;68.10
32293;DHT22;43233;48.608;8.838;2022-11-21T17:18:32;5.50;68.50
32293;DHT22;43233;48.608;8.838;2022-11-21T17:21:01;5.50;68.70
32293;DHT22;43233;48.608;8.838;2022-11-21T17:23:30;5.50;68.90
32293;DHT22;43233;48.608;8.838;2022-11-21T17:26:00;5.50;69.30
32293;DHT22;43233;48.608;8.838;2022-11-21T17:28:27;5.40;69.40
32293;DHT22;43233;48.608;8.838;2022-11-21T17:30:52;5.40;69.60
32293;DHT22;43233;48.608;8.838;2022-11-21T17:33:18;5.40;69.80
32293;DHT22;43233;48.608;8.838;2022-11-21T17:35:43;5.30;70.10
32293;DHT22;43233;48.608;8.838;2022-11-21T17:38:09;5.30;70.20
32293;DHT22;43233;48.608;8.838;2022-11-21T17:40:34;5.30;70.20
32293;DHT22;43233;48.608;8.838;2022-11-21T17:43:01;5.30;70.60
32293;DHT22;43233;48.608;8.838;2022-11-21T17:45:27;5.20;70.50
32293;DHT22;43233;48.608;8.838;2022-11-21T17:47:52;5.30;70.70
32293;DHT22;43233;48.608;8.838;2022-11-21T17:50:18;5.30;71.00
32293;DHT22;43233;48.608;8.838;2022-11-21T17:52:44;5.20;71.10
32293;DHT22;43233;48.608;8.838;2022-11-21T17:55:10;5.20;71.20
32293;DHT22;43233;48.608;8.838;2022-11-21T17:57:36;5.20;71.50
32293;DHT22;43233;48.608;8.838;2022-11-21T18:00:03;5.10;71.50
32293;DHT22;43233;48.608;8.838;2022-11-21T18:02:29;5.20;71.50
32293;DHT22;43233;48.608;8.838;2022-11-21T18:04:55;5.00;72.10
32293;DHT22;43233;48.608;8.838;2022-11-21T18:07:20;5.00;72.40
32293;DHT22;43233;48.608;8.838;2022-11-21T18:09:46;5.00;72.50
32293;DHT22;43233;48.608;8.838;2022-11-21T18:12:11;4.90;73.20
32293;DHT22;43233;48.608;8.838;2022-11-21T18:14:37;4.90;73.40
32293;DHT22;43233;48.608;8.838;2022-11-21T18:17:03;4.90;73.50
32293;DHT22;43233;48.608;8.838;2022-11-21T18:19:29;4.90;73.60
32293;DHT22;43233;48.608;8.838;2022-11-21T18:21:54;4.90;73.50
32293;DHT22;43233;48.608;8.838;2022-11-21T18:24:20;4.90;73.30
32293;DHT22;43233;48.608;8.838;2022-11-21T18:26:45;4.90;73.10
32293;DHT22;43233;48.608;8.838;2022-11-21T18:29:11;5.00;72.80
32293;DHT22;43233;48.608;8.838;2022-11-21T18:31:37;5.00;72.70